Time;durP1;ratioP1;P1;durP2;ratioP2;P2;SDS_P1;SDS_P2;PMS_P1;PMS_P2;Temp;Humidity;BMP_temperature;BMP_pressure;BME280_temperature;BME280_humidity;BME280_pressure;Samples;Min_cycle;Max_cycle;Signal;HPM_P1;HPM_P2
2023/07/04 00:00:58;;;;;;;13.63;3.40;;;;;;;;;;4972078;28;20030;-36
2023/07/04 00:03:24;;;;;;;11.15;3.35;;;;;;;;;;4987870;28;20388;-35
2023/07/04 00:05:50;;;;;;;11.40;3.25;;;;;;;;;;4985118;28;20023;-36
2023/07/04 00:08:15;;;;;;;10.63;3.17;;;;;;;;;;4988995;28;20041;-35
2023/07/04 00:10:41;;;;;;;7.07;3.25;;;;;;;;;;4988053;28;20030;-37
2023/07/04 00:13:07;;;;;;;9.80;2.90;;;;;;;;;;4989720;28;20706;-37
2023/07/04 00:15:32;;;;;;;14.77;3.67;;;;;;;;;;4990063;28;20018;-36
2023/07/04 00:17:58;;;;;;;8.30;3.30;;;;;;;;;;4986475;28;20416;-36
2023/07/04 00:20:25;;;;;;;8.93;3.60;;;;;;;;;;4985965;28;20508;-36
2023/07/04 00:22:51;;;;;;;10.43;3.75;;;;;;;;;;4986437;28;20046;-37
2023/07/04 00:25:16;;;;;;;7.82;3.47;;;;;;;;;;4986523;28;20077;-36
2023/07/04 00:27:41;;;;;;;12.32;3.17;;;;;;;;;;4982718;28;20034;-36
2023/07/04 00:30:08;;;;;;;11.40;3.43;;;;;;;;;;4989580;28;21406;-35
2023/07/04 00:32:33;;;;;;;16.92;4.15;;;;;;;;;;4988870;28;20976;-36
2023/07/04 00:35:00;;;;;;;8.27;3.60;;;;;;;;;;4988893;28;20057;-37
2023/07/04 00:37:28;;;;;;;9.80;3.63;;;;;;;;;;4990891;28;20480;-37
2023/07/04 00:39:53;;;;;;;12.15;3.17;;;;;;;;;;4989557;28;20038;-36
2023/07/04 00:42:19;;;;;;;13.75;3.47;;;;;;;;;;4987631;28;20033;-36
2023/07/04 00:44:54;;;;;;;9.63;2.67;;;;;;;;;;4986396;28;20030;-37
2023/07/04 00:47:32;;;;;;;8.90;3.03;;;;;;;;;;4988601;28;20059;-35
2023/07/04 00:50:06;;;;;;;7.40;2.92;;;;;;;;;;4987941;28;20029;-37
2023/07/04 00:52:33;;;;;;;10.15;3.55;;;;;;;;;;4991270;28;20025;-36
2023/07/04 00:55:00;;;;;;;14.00;4.13;;;;;;;;;;4992477;28;20503;-36
2023/07/04 00:57:31;;;;;;;7.65;3.20;;;;;;;;;;4991903;28;20026;-36
2023/07/04 00:59:58;;;;;;;10.90;3.88;;;;;;;;;;4991226;28;20121;-36
2023/07/04 01:02:26;;;;;;;11.05;3.40;;;;;;;;;;4978793;28;20053;-36
2023/07/04 01:04:52;;;;;;;11.25;5.30;;;;;;;;;;4994424;28;20053;-36
2023/07/04 01:07:20;;;;;;;12.88;3.53;;;;;;;;;;4997332;28;20025;-36
2023/07/04 01:09:57;;;;;;;10.68;3.90;;;;;;;;;;4989730;28;20015;-36
2023/07/04 01:12:29;;;;;;;9.10;4.80;;;;;;;;;;4985153;28;20030;-36
2023/07/04 01:14:54;;;;;;;;;;;;;;;;;;4989281;28;20481;-37
2023/07/04 01:17:20;;;;;;;12.87;3.97;;;;;;;;;;4988031;28;19925;-36
2023/07/04 01:19:46;;;;;;;10.63;5.27;;;;;;;;;;4981960;28;20110;-37
2023/07/04 01:22:15;;;;;;;9.43;3.50;;;;;;;;;;4984907;28;20022;-37
2023/07/04 01:24:56;;;;;;;10.73;3.42;;;;;;;;;;4984687;28;20164;-36
2023/07/04 01:27:23;;;;;;;14.80;3.65;;;;;;;;;;4990962;28;20045;-37
2023/07/04 01:29:48;;;;;;;15.85;4.47;;;;;;;;;;4980198;28;20022;-36
2023/07/04 01:32:13;;;;;;;13.32;4.22;;;;;;;;;;4987575;28;20018;-36
2023/07/04 01:34:38;;;;;;;8.00;3.58;;;;;;;;;;4988096;28;20052;-36
2023/07/04 01:37:05;;;;;;;9.60;3.80;;;;;;;;;;4985670;28;20022;-37
2023/07/04 01:39:30;;;;;;;12.98;4.18;;;;;;;;;;4984041;28;20741;-37
2023/07/04 01:41:55;;;;;;;11.05;4.32;;;;;;;;;;4983122;28;20049;-36
2023/07/04 01:44:24;;;;;;;7.95;3.60;;;;;;;;;;4986003;28;20547;-36
2023/07/04 01:46:50;;;;;;;14.38;4.57;;;;;;;;;;4982933;28;20076;-36
2023/07/04 01:49:16;;;;;;;11.85;4.28;;;;;;;;;;4988842;28;20018;-36
2023/07/04 01:51:42;;;;;;;11.45;4.07;;;;;;;;;;4987381;28;20029;-36
2023/07/04 01:54:08;;;;;;;11.52;3.58;;;;;;;;;;4985907;28;20026;-35
2023/07/04 01:56:34;;;;;;;8.70;3.63;;;;;;;;;;4991738;28;20381;-35
2023/07/04 01:58:59;;;;;;;7.93;3.80;;;;;;;;;;4985364;28;20034;-36
2023/07/04 02:01:25;;;;;;;6.38;2.88;;;;;;;;;;4990593;28;20069;-35
2023/07/04 02:03:50;;;;;;;11.95;4.97;;;;;;;;;;4987171;28;20038;-36
2023/07/04 02:06:16;;;;;;;16.70;4.32;;;;;;;;;;4989375;28;20022;-36
2023/07/04 02:08:41;;;;;;;10.87;4.70;;;;;;;;;;4989201;28;20034;-37
2023/07/04 02:11:06;;;;;;;11.53;3.90;;;;;;;;;;4990127;28;20270;-37
2023/07/04 02:13:32;;;;;;;9.65;3.70;;;;;;;;;;4985634;28;20339;-36
2023/07/04 02:15:57;;;;;;;12.52;3.80;;;;;;;;;;4992521;28;20023;-36
2023/07/04 02:18:24;;;;;;;11.23;3.90;;;;;;;;;;4985891;28;20068;-36
2023/07/04 02:20:49;;;;;;;9.70;3.78;;;;;;;;;;4984956;28;20285;-37
2023/07/04 02:23:14;;;;;;;8.23;3.90;;;;;;;;;;4983367;28;20038;-36
2023/07/04 02:25:40;;;;;;;14.87;6.97;;;;;;;;;;4987266;28;20033;-37
2023/07/04 02:28:06;;;;;;;16.52;6.18;;;;;;;;;;4983835;28;20976;-37
2023/07/04 02:30:31;;;;;;;14.45;5.13;;;;;;;;;;4983293;28;20070;-37
2023/07/04 02:32:56;;;;;;;8.30;3.30;;;;;;;;;;4984656;28;20026;-36
2023/07/04 02:35:21;;;;;;;6.13;3.37;;;;;;;;;;4991403;28;20030;-36
2023/07/04 02:37:47;;;;;;;11.50;3.80;;;;;;;;;;4990030;28;20297;-35
2023/07/04 02:40:12;;;;;;;11.87;4.50;;;;;;;;;;4986657;28;20035;-36
2023/07/04 02:42:37;;;;;;;9.73;3.28;;;;;;;;;;4988035;28;20065;-36
2023/07/04 02:45:06;;;;;;;11.57;3.80;;;;;;;;;;4993813;28;20030;-36
2023/07/04 02:47:31;;;;;;;12.35;3.83;;;;;;;;;;4987548;28;20030;-35
2023/07/04 02:49:57;;;;;;;8.97;3.73;;;;;;;;;;4985098;28;20029;-34
2023/07/04 02:52:23;;;;;;;12.07;4.30;;;;;;;;;;4985502;28;20988;-35
2023/07/04 02:54:48;;;;;;;11.57;4.68;;;;;;;;;;4985405;28;20288;-36
2023/07/04 02:57:16;;;;;;;11.30;3.90;;;;;;;;;;4992228;28;20027;-36
2023/07/04 02:59:41;;;;;;;10.65;3.95;;;;;;;;;;4986960;28;20315;-37
2023/07/04 03:02:06;;;;;;;13.00;4.72;;;;;;;;;;4991798;28;20022;-36
2023/07/04 03:04:32;;;;;;;8.20;3.33;;;;;;;;;;4986252;28;20389;-36
2023/07/04 03:06:57;;;;;;;10.23;3.80;;;;;;;;;;4987101;28;20449;-36
2023/07/04 03:09:23;;;;;;;9.32;3.80;;;;;;;;;;4989163;28;20022;-36
2023/07/04 03:11:48;;;;;;;12.52;4.97;;;;;;;;;;4984823;28;20417;-36
2023/07/04 03:14:13;;;;;;;9.33;4.07;;;;;;;;;;4987170;28;20033;-37
2023/07/04 03:16:39;;;;;;;12.65;3.75;;;;;;;;;;4986550;28;20794;-36
2023/07/04 03:19:04;;;;;;;8.93;3.40;;;;;;;;;;4981936;28;20030;-35
2023/07/04 03:21:29;;;;;;;12.02;3.78;;;;;;;;;;4984580;28;20117;-36
2023/07/04 03:23:55;;;;;;;6.53;2.77;;;;;;;;;;4986301;28;20477;-36
2023/07/04 03:26:20;;;;;;;15.53;5.07;;;;;;;;;;4982165;28;20085;-36
2023/07/04 03:28:45;;;;;;;14.65;4.95;;;;;;;;;;4985976;28;20026;-36
2023/07/04 03:31:11;;;;;;;12.87;4.50;;;;;;;;;;4983478;28;20103;-36
2023/07/04 03:33:36;;;;;;;14.30;4.15;;;;;;;;;;4985143;28;20022;-35
2023/07/04 03:36:02;;;;;;;10.65;4.10;;;;;;;;;;4987048;28;20046;-37
2023/07/04 03:38:27;;;;;;;10.05;3.63;;;;;;;;;;4987220;28;20524;-36
2023/07/04 03:40:53;;;;;;;11.77;3.45;;;;;;;;;;4983434;28;20031;-37
2023/07/04 03:43:18;;;;;;;9.88;3.38;;;;;;;;;;4985209;28;20431;-37
2023/07/04 03:45:46;;;;;;;8.93;4.30;;;;;;;;;;4988973;28;20085;-36
2023/07/04 03:48:12;;;;;;;11.80;4.15;;;;;;;;;;4984337;28;20385;-37
2023/07/04 03:50:38;;;;;;;11.30;3.42;;;;;;;;;;4990933;28;20531;-37
2023/07/04 03:53:03;;;;;;;11.95;3.78;;;;;;;;;;4992390;28;20454;-36
2023/07/04 03:55:28;;;;;;;11.77;4.27;;;;;;;;;;4987744;28;20691;-35
2023/07/04 03:57:54;;;;;;;18.83;4.37;;;;;;;;;;4985662;28;20270;-36
2023/07/04 04:00:19;;;;;;;14.77;4.10;;;;;;;;;;4990991;28;20275;-37
2023/07/04 04:02:44;;;;;;;12.77;3.90;;;;;;;;;;4983977;28;20030;-36
2023/07/04 04:05:10;;;;;;;9.10;3.73;;;;;;;;;;4983470;28;20389;-38
2023/07/04 04:07:35;;;;;;;9.53;3.77;;;;;;;;;;4984770;28;20026;-39
2023/07/04 04:10:00;;;;;;;9.03;3.43;;;;;;;;;;4990852;28;20316;-37
2023/07/04 04:12:25;;;;;;;12.23;3.90;;;;;;;;;;4992666;28;20265;-36
2023/07/04 04:14:51;;;;;;;17.37;4.80;;;;;;;;;;4990238;28;20036;-37
2023/07/04 04:17:16;;;;;;;10.77;4.80;;;;;;;;;;4989052;28;20034;-36
2023/07/04 04:19:41;;;;;;;9.07;4.13;;;;;;;;;;4983874;28;20285;-36
2023/07/04 04:22:06;;;;;;;12.03;4.07;;;;;;;;;;4986601;28;20481;-36
2023/07/04 04:24:32;;;;;;;12.13;3.97;;;;;;;;;;4985509;28;20380;-36
2023/07/04 04:27:00;;;;;;;8.10;3.60;;;;;;;;;;4993382;28;20282;-36
2023/07/04 04:29:28;;;;;;;10.20;4.30;;;;;;;;;;4990204;28;20417;-36
2023/07/04 04:31:53;;;;;;;8.98;3.83;;;;;;;;;;4986954;28;20018;-36
2023/07/04 04:34:20;;;;;;;10.23;4.15;;;;;;;;;;4986568;28;20100;-39
2023/07/04 04:36:46;;;;;;;8.98;4.20;;;;;;;;;;4988525;28;20027;-36
2023/07/04 04:39:11;;;;;;;9.63;3.73;;;;;;;;;;4985308;28;20049;-39
2023/07/04 04:41:36;;;;;;;8.82;4.65;;;;;;;;;;4994874;28;20380;-36
2023/07/04 04:44:04;;;;;;;9.68;4.43;;;;;;;;;;4993879;28;20109;-36
2023/07/04 04:46:29;;;;;;;12.20;3.85;;;;;;;;;;4997242;28;20014;-36
2023/07/04 04:48:58;;;;;;;15.70;5.80;;;;;;;;;;4986626;28;20035;-36
2023/07/04 04:51:24;;;;;;;18.48;4.60;;;;;;;;;;4987905;28;20045;-38
2023/07/04 04:53:49;;;;;;;14.85;4.63;;;;;;;;;;4992300;28;20034;-34
2023/07/04 04:56:15;;;;;;;8.13;4.38;;;;;;;;;;4993689;28;20032;-36
2023/07/04 04:58:44;;;;;;;14.05;4.30;;;;;;;;;;4982942;28;20030;-36
2023/07/04 05:01:14;;;;;;;13.07;4.95;;;;;;;;;;4994665;28;20579;-36
2023/07/04 05:03:40;;;;;;;12.80;4.30;;;;;;;;;;4992073;28;20034;-36
2023/07/04 05:06:05;;;;;;;10.85;4.80;;;;;;;;;;4987598;28;20440;-37
2023/07/04 05:08:30;;;;;;;13.93;4.87;;;;;;;;;;4995493;28;20508;-36
2023/07/04 05:11:04;;;;;;;12.07;4.47;;;;;;;;;;4983099;28;20292;-38
2023/07/04 05:13:30;;;;;;;12.38;4.32;;;;;;;;;;4988460;28;20269;-38
2023/07/04 05:15:59;;;;;;;15.32;4.30;;;;;;;;;;4982336;28;20029;-38
2023/07/04 05:18:24;;;;;;;12.25;4.07;;;;;;;;;;4989284;28;20022;-35
2023/07/04 05:20:58;;;;;;;11.87;4.67;;;;;;;;;;4989883;28;20022;-35
2023/07/04 05:23:23;;;;;;;12.68;3.95;;;;;;;;;;4995196;28;20299;-35
2023/07/04 05:25:57;;;;;;;15.97;5.00;;;;;;;;;;4989975;28;20444;-36
2023/07/04 05:28:22;;;;;;;11.88;4.25;;;;;;;;;;4987008;28;20388;-35
2023/07/04 05:30:47;;;;;;;13.13;4.83;;;;;;;;;;4989913;28;20145;-35
2023/07/04 05:33:13;;;;;;;17.20;5.00;;;;;;;;;;4985002;28;20023;-36
2023/07/04 05:35:38;;;;;;;10.23;3.77;;;;;;;;;;4990458;28;20041;-36
2023/07/04 05:38:03;;;;;;;13.67;4.97;;;;;;;;;;4991248;28;20466;-38
2023/07/04 05:40:28;;;;;;;14.53;5.53;;;;;;;;;;4983912;28;20034;-38
2023/07/04 05:42:56;;;;;;;13.47;4.63;;;;;;;;;;4989876;28;20037;-35
2023/07/04 05:45:21;;;;;;;9.57;4.38;;;;;;;;;;4993981;28;20044;-37
2023/07/04 05:47:46;;;;;;;6.97;2.37;;;;;;;;;;4985728;28;20496;-36
2023/07/04 05:50:11;;;;;;;9.53;4.80;;;;;;;;;;4987048;28;20021;-36
2023/07/04 05:52:37;;;;;;;9.17;3.70;;;;;;;;;;4993041;28;20289;-36
2023/07/04 05:55:02;;;;;;;16.03;4.10;;;;;;;;;;4989504;28;20385;-38
2023/07/04 05:57:31;;;;;;;17.92;4.55;;;;;;;;;;4990535;28;20032;-36
2023/07/04 05:59:57;;;;;;;15.70;4.32;;;;;;;;;;4985628;28;20027;-37
2023/07/04 06:02:22;;;;;;;11.73;4.35;;;;;;;;;;4987902;28;20025;-36
2023/07/04 06:04:47;;;;;;;9.55;3.50;;;;;;;;;;4985504;28;20062;-38
2023/07/04 06:07:12;;;;;;;12.07;4.03;;;;;;;;;;4989021;28;20022;-36
2023/07/04 06:09:38;;;;;;;13.97;3.33;;;;;;;;;;4979834;28;20057;-36
2023/07/04 06:12:06;;;;;;;10.60;3.77;;;;;;;;;;4975388;28;20022;-38
2023/07/04 06:14:34;;;;;;;13.85;2.97;;;;;;;;;;4988864;28;20721;-36
2023/07/04 06:17:00;;;;;;;8.50;3.08;;;;;;;;;;4978300;28;20022;-36
2023/07/04 06:19:26;;;;;;;9.02;2.97;;;;;;;;;;4979319;28;20053;-36
2023/07/04 06:21:51;;;;;;;7.23;2.53;;;;;;;;;;4982243;28;20022;-36
2023/07/04 06:24:17;;;;;;;7.68;2.58;;;;;;;;;;4977814;28;20037;-35
2023/07/04 06:26:43;;;;;;;6.82;2.08;;;;;;;;;;4984744;28;20038;-36
2023/07/04 06:29:08;;;;;;;3.40;1.23;;;;;;;;;;4981651;28;20031;-36
2023/07/04 06:31:33;;;;;;;5.77;1.20;;;;;;;;;;4976901;28;20027;-36
2023/07/04 06:34:00;;;;;;;6.47;1.60;;;;;;;;;;4978052;28;20037;-38
2023/07/04 06:36:25;;;;;;;3.10;1.50;;;;;;;;;;4982303;28;20356;-37
2023/07/04 06:38:51;;;;;;;5.40;1.57;;;;;;;;;;4982886;28;20113;-36
2023/07/04 06:41:16;;;;;;;6.45;2.30;;;;;;;;;;4987341;28;20283;-36
2023/07/04 06:43:43;;;;;;;4.60;1.40;;;;;;;;;;4980092;28;20100;-36
2023/07/04 06:46:18;;;;;;;7.85;1.35;;;;;;;;;;4980120;28;20092;-38
2023/07/04 06:48:46;;;;;;;5.05;1.17;;;;;;;;;;4973762;28;20417;-36
2023/07/04 06:51:12;;;;;;;9.13;1.23;;;;;;;;;;4981111;28;20358;-36
2023/07/04 06:53:38;;;;;;;2.80;1.30;;;;;;;;;;4968893;28;20038;-36
2023/07/04 06:56:07;;;;;;;3.95;1.35;;;;;;;;;;4982180;28;20041;-36
2023/07/04 06:58:33;;;;;;;5.90;1.20;;;;;;;;;;4984829;28;20022;-37
2023/07/04 07:00:58;;;;;;;8.13;1.27;;;;;;;;;;4972143;28;20030;-36
2023/07/04 07:03:24;;;;;;;3.70;1.02;;;;;;;;;;4984800;28;20018;-36
2023/07/04 07:05:49;;;;;;;7.03;1.40;;;;;;;;;;4989785;28;20042;-37
2023/07/04 07:08:16;;;;;;;6.43;1.27;;;;;;;;;;4978323;28;20148;-36
2023/07/04 07:10:50;;;;;;;3.00;1.13;;;;;;;;;;4988692;28;20671;-36
2023/07/04 07:13:15;;;;;;;5.03;2.08;;;;;;;;;;4980590;28;20117;-37
2023/07/04 07:15:40;;;;;;;4.57;0.90;;;;;;;;;;4982291;28;20050;-37
2023/07/04 07:18:06;;;;;;;7.10;1.83;;;;;;;;;;4976063;28;20025;-36
2023/07/04 07:20:31;;;;;;;1.70;0.80;;;;;;;;;;4984408;28;20274;-36
2023/07/04 07:22:56;;;;;;;4.53;0.87;;;;;;;;;;4974097;28;20316;-36
2023/07/04 07:25:21;;;;;;;2.13;0.70;;;;;;;;;;4977282;28;20034;-36
2023/07/04 07:27:47;;;;;;;4.50;1.03;;;;;;;;;;4981077;28;20035;-36
2023/07/04 07:30:12;;;;;;;2.83;0.80;;;;;;;;;;4983427;28;20304;-37
2023/07/04 07:32:37;;;;;;;4.75;0.82;;;;;;;;;;4986162;28;20297;-36
2023/07/04 07:35:03;;;;;;;6.97;1.20;;;;;;;;;;4979226;28;20062;-38
2023/07/04 07:37:28;;;;;;;6.15;1.20;;;;;;;;;;4984542;28;20521;-36
2023/07/04 07:39:53;;;;;;;3.00;0.77;;;;;;;;;;4981450;28;20369;-36
2023/07/04 07:42:18;;;;;;;3.80;1.00;;;;;;;;;;4983821;28;20018;-37
2023/07/04 07:44:44;;;;;;;4.70;1.07;;;;;;;;;;4986105;28;20120;-36
2023/07/04 07:47:12;;;;;;;4.70;1.00;;;;;;;;;;4976059;28;20489;-36
2023/07/04 07:49:37;;;;;;;7.57;0.77;;;;;;;;;;4975398;28;20317;-36
2023/07/04 07:52:03;;;;;;;3.37;0.87;;;;;;;;;;4977373;28;20101;-36
2023/07/04 07:54:28;;;;;;;2.10;0.60;;;;;;;;;;4984256;28;20281;-36
2023/07/04 07:56:53;;;;;;;2.60;0.90;;;;;;;;;;4982670;28;20030;-36
2023/07/04 07:59:20;;;;;;;2.35;0.60;;;;;;;;;;4985824;28;20034;-36
2023/07/04 08:01:46;;;;;;;4.38;0.90;;;;;;;;;;4983484;28;20029;-37
2023/07/04 08:04:11;;;;;;;10.02;1.20;;;;;;;;;;4980627;28;20114;-36
2023/07/04 08:06:38;;;;;;;6.27;0.87;;;;;;;;;;4982997;28;20076;-36
2023/07/04 08:09:04;;;;;;;3.67;0.80;;;;;;;;;;4981467;28;20838;-38
2023/07/04 08:11:29;;;;;;;3.38;0.68;;;;;;;;;;4985288;28;20080;-37
2023/07/04 08:13:55;;;;;;;1.95;0.70;;;;;;;;;;4984962;28;20628;-36
2023/07/04 08:16:21;;;;;;;3.33;0.88;;;;;;;;;;4985851;28;20034;-36
2023/07/04 08:18:47;;;;;;;5.95;1.15;;;;;;;;;;4983747;28;20038;-36
2023/07/04 08:21:13;;;;;;;4.60;0.77;;;;;;;;;;4979327;28;20026;-36
2023/07/04 08:23:38;;;;;;;8.07;0.95;;;;;;;;;;4983736;28;20416;-36
2023/07/04 08:26:04;;;;;;;3.55;0.93;;;;;;;;;;4982387;28;20030;-36
2023/07/04 08:28:29;;;;;;;3.25;0.90;;;;;;;;;;4986603;28;20023;-36
2023/07/04 08:31:02;;;;;;;2.20;0.88;;;;;;;;;;4983409;28;20171;-37
2023/07/04 08:33:27;;;;;;;8.63;1.00;;;;;;;;;;4990119;28;20386;-36
2023/07/04 08:35:57;;;;;;;4.23;1.10;;;;;;;;;;4979289;28;20515;-38
2023/07/04 08:38:22;;;;;;;3.40;0.95;;;;;;;;;;4989982;28;20281;-36
2023/07/04 08:40:48;;;;;;;4.43;1.33;;;;;;;;;;4989224;28;20076;-36
2023/07/04 08:43:15;;;;;;;6.65;1.30;;;;;;;;;;4986326;28;20022;-36
2023/07/04 08:45:40;;;;;;;4.72;0.98;;;;;;;;;;4988203;28;20117;-38
2023/07/04 08:48:06;;;;;;;3.20;0.88;;;;;;;;;;4985671;28;20110;-37
2023/07/04 08:50:35;;;;;;;7.40;1.05;;;;;;;;;;4984574;28;20097;-36
2023/07/04 08:53:11;;;;;;;3.28;0.88;;;;;;;;;;4991584;28;20023;-36
2023/07/04 08:55:42;;;;;;;3.95;0.85;;;;;;;;;;4987593;28;20023;-36
2023/07/04 08:58:09;;;;;;;2.72;0.70;;;;;;;;;;4988942;28;20030;-37
2023/07/04 09:00:36;;;;;;;7.38;1.02;;;;;;;;;;4990269;28;20117;-37
2023/07/04 09:03:07;;;;;;;7.93;1.60;;;;;;;;;;4991797;28;20026;-36
2023/07/04 09:05:33;;;;;;;4.32;1.20;;;;;;;;;;4988989;28;20096;-36
2023/07/04 09:08:04;;;;;;;4.93;0.68;;;;;;;;;;4991012;28;20489;-37
2023/07/04 09:10:35;;;;;;;4.55;0.88;;;;;;;;;;4991402;28;20026;-36
2023/07/04 09:13:02;;;;;;;6.80;1.05;;;;;;;;;;4987429;28;20101;-37
2023/07/04 09:15:33;;;;;;;3.78;0.60;;;;;;;;;;4987813;28;20023;-36
2023/07/04 09:18:18;;;;;;;7.45;1.23;;;;;;;;;;4982974;28;20489;-37
2023/07/04 09:20:46;;;;;;;1.80;0.80;;;;;;;;;;4991115;28;20069;-36
2023/07/04 09:23:14;;;;;;;6.25;1.05;;;;;;;;;;4987345;28;20027;-36
2023/07/04 09:25:40;;;;;;;3.20;0.70;;;;;;;;;;4984999;28;20065;-36
2023/07/04 09:28:05;;;;;;;5.95;1.20;;;;;;;;;;4988452;28;20440;-37
2023/07/04 09:30:31;;;;;;;3.67;1.00;;;;;;;;;;4984722;28;20030;-37
2023/07/04 09:32:56;;;;;;;7.85;0.90;;;;;;;;;;4986499;28;20023;-36
2023/07/04 09:35:21;;;;;;;2.80;0.95;;;;;;;;;;4987790;28;20031;-37
2023/07/04 09:37:54;;;;;;;1.97;0.80;;;;;;;;;;4987842;28;20041;-36
2023/07/04 09:40:37;;;;;;;4.05;1.05;;;;;;;;;;4986957;28;20034;-38
2023/07/04 09:43:02;;;;;;;4.10;0.80;;;;;;;;;;4985139;28;20508;-36
2023/07/04 09:45:28;;;;;;;6.47;0.90;;;;;;;;;;4986262;28;20034;-36
2023/07/04 09:47:54;;;;;;;2.35;0.57;;;;;;;;;;4984065;28;20026;-36
2023/07/04 09:50:32;;;;;;;4.30;1.00;;;;;;;;;;4988059;28;20030;-36
2023/07/04 09:53:11;;;;;;;3.78;0.77;;;;;;;;;;4988692;28;20041;-37
2023/07/04 09:55:40;;;;;;;3.25;0.75;;;;;;;;;;4983953;28;20026;-36
2023/07/04 09:58:23;;;;;;;5.47;1.00;;;;;;;;;;4984350;28;20489;-37
2023/07/04 10:01:08;;;;;;;10.52;1.10;;;;;;;;;;4988427;28;20121;-36
2023/07/04 10:03:40;;;;;;;9.90;1.10;;;;;;;;;;4988589;28;20032;-36
2023/07/04 10:06:06;;;;;;;9.00;1.40;;;;;;;;;;4980366;28;20023;-37
2023/07/04 10:08:49;;;;;;;1.23;0.52;;;;;;;;;;4985407;28;20052;-35
2023/07/04 10:11:23;;;;;;;2.80;0.68;;;;;;;;;;4979084;28;20026;-38
2023/07/04 10:13:57;;;;;;;2.78;1.20;;;;;;;;;;4980473;28;20027;-36
2023/07/04 10:16:23;;;;;;;4.13;0.93;;;;;;;;;;4984633;28;20014;-35
2023/07/04 10:19:01;;;;;;;4.82;0.68;;;;;;;;;;4986904;28;20038;-37
2023/07/04 10:21:26;;;;;;;4.05;0.82;;;;;;;;;;4985545;28;20023;-37
2023/07/04 10:23:51;;;;;;;6.73;1.33;;;;;;;;;;4975907;28;20476;-37
2023/07/04 10:26:17;;;;;;;5.80;1.70;;;;;;;;;;4978771;28;20281;-37
2023/07/04 10:28:42;;;;;;;4.65;1.13;;;;;;;;;;4974523;28;20304;-36
2023/07/04 10:31:14;;;;;;;6.50;0.95;;;;;;;;;;4977837;28;20023;-37
2023/07/04 10:33:50;;;;;;;4.22;0.88;;;;;;;;;;4978653;28;20535;-34
2023/07/04 10:36:18;;;;;;;4.35;1.70;;;;;;;;;;4982460;28;20473;-37
2023/07/04 10:38:45;;;;;;;4.50;1.25;;;;;;;;;;4973749;28;20021;-36
2023/07/04 10:41:31;;;;;;;3.08;1.15;;;;;;;;;;4975141;28;21185;-36
2023/07/04 10:43:58;;;;;;;4.35;1.10;;;;;;;;;;4949505;28;20042;-36
2023/07/04 10:46:28;;;;;;;2.13;0.93;;;;;;;;;;4975476;28;20014;-36
2023/07/04 10:49:20;;;;;;;4.10;0.70;;;;;;;;;;4978775;28;20030;-38
2023/07/04 10:51:48;;;;;;;4.50;0.70;;;;;;;;;;4982498;28;20062;-37
2023/07/04 10:54:13;;;;;;;2.80;0.88;;;;;;;;;;4974634;28;20045;-36
2023/07/04 10:56:42;;;;;;;9.93;3.55;;;;;;;;;;4983489;28;20433;-38
2023/07/04 10:59:11;;;;;;;2.90;1.10;;;;;;;;;;4980200;28;20109;-39
2023/07/04 11:01:39;;;;;;;2.80;0.80;;;;;;;;;;4990202;28;20057;-36
2023/07/04 11:04:09;;;;;;;3.85;0.85;;;;;;;;;;4988770;28;20030;-40
2023/07/04 11:06:37;;;;;;;3.60;1.00;;;;;;;;;;4998592;28;20025;-35
2023/07/04 11:09:05;;;;;;;2.53;0.70;;;;;;;;;;4982415;28;20061;-34
2023/07/04 11:11:31;;;;;;;3.15;1.27;;;;;;;;;;4984251;28;20032;-35
2023/07/04 11:14:00;;;;;;;14.73;1.48;;;;;;;;;;4991850;28;20041;-37
2023/07/04 11:16:27;;;;;;;2.65;1.08;;;;;;;;;;4986508;28;20548;-35
2023/07/04 11:18:58;;;;;;;3.38;0.80;;;;;;;;;;4973487;28;20049;-36
2023/07/04 11:21:24;;;;;;;2.17;0.82;;;;;;;;;;4984299;28;20496;-37
2023/07/04 11:23:51;;;;;;;3.80;0.93;;;;;;;;;;4987754;28;20114;-36
2023/07/04 11:26:17;;;;;;;2.17;1.00;;;;;;;;;;4982806;28;20030;-34
2023/07/04 11:28:47;;;;;;;7.63;1.13;;;;;;;;;;4985819;28;20018;-34
2023/07/04 11:31:28;;;;;;;6.65;0.93;;;;;;;;;;4984908;28;20109;-34
2023/07/04 11:33:53;;;;;;;4.87;1.03;;;;;;;;;;4986106;28;20022;-35
2023/07/04 11:36:21;;;;;;;5.00;1.37;;;;;;;;;;4974981;28;20019;-36
2023/07/04 11:38:52;;;;;;;3.63;1.10;;;;;;;;;;4986500;28;20031;-35
2023/07/04 11:41:25;;;;;;;3.33;1.17;;;;;;;;;;4984241;28;20030;-36
2023/07/04 11:43:51;;;;;;;3.65;1.13;;;;;;;;;;4982363;28;20540;-37
2023/07/04 11:46:24;;;;;;;3.33;1.08;;;;;;;;;;4979153;28;20045;-38
2023/07/04 11:48:50;;;;;;;11.15;1.98;;;;;;;;;;4975202;28;20038;-40
2023/07/04 11:51:17;;;;;;;5.18;1.00;;;;;;;;;;4984420;28;20021;-35
2023/07/04 11:53:45;;;;;;;10.73;2.67;;;;;;;;;;4978807;28;20500;-37
2023/07/04 11:56:14;;;;;;;3.03;0.73;;;;;;;;;;4975476;28;20459;-37
2023/07/04 11:58:40;;;;;;;3.67;1.20;;;;;;;;;;4974187;28;20022;-38
2023/07/04 12:01:06;;;;;;;3.95;0.98;;;;;;;;;;4981311;28;20026;-42
2023/07/04 12:03:35;;;;;;;9.75;3.40;;;;;;;;;;4980081;28;20031;-37
2023/07/04 12:06:01;;;;;;;2.97;0.90;;;;;;;;;;4983168;28;20511;-39
2023/07/04 12:08:29;;;;;;;6.47;1.10;;;;;;;;;;4986170;28;20072;-36
2023/07/04 12:10:59;;;;;;;3.65;0.90;;;;;;;;;;4976367;28;20025;-37
2023/07/04 12:13:25;;;;;;;3.42;1.30;;;;;;;;;;4989139;28;20022;-38
2023/07/04 12:15:54;;;;;;;5.70;1.08;;;;;;;;;;4992568;28;20034;-35
2023/07/04 12:18:23;;;;;;;9.75;1.60;;;;;;;;;;4992563;28;20392;-36
2023/07/04 12:20:49;;;;;;;4.90;1.40;;;;;;;;;;4988516;28;20034;-35
2023/07/04 12:23:15;;;;;;;4.43;1.38;;;;;;;;;;4990360;28;20030;-34
2023/07/04 12:25:41;;;;;;;2.80;0.82;;;;;;;;;;4988924;28;20875;-35
2023/07/04 12:28:09;;;;;;;4.13;1.08;;;;;;;;;;4979576;28;20026;-35
2023/07/04 12:30:37;;;;;;;5.13;0.95;;;;;;;;;;4983361;28;20027;-35
2023/07/04 12:33:02;;;;;;;3.65;0.95;;;;;;;;;;4990375;28;20050;-35
2023/07/04 12:35:31;;;;;;;3.80;1.00;;;;;;;;;;4987981;28;20068;-37
2023/07/04 12:37:57;;;;;;;2.88;1.10;;;;;;;;;;4989043;28;20069;-35
2023/07/04 12:40:28;;;;;;;2.83;1.08;;;;;;;;;;4988533;28;20054;-35
2023/07/04 12:42:54;;;;;;;4.05;1.42;;;;;;;;;;4992654;28;20097;-36
2023/07/04 12:45:26;;;;;;;3.75;0.90;;;;;;;;;;4985773;28;20081;-35
2023/07/04 12:47:55;;;;;;;6.95;1.27;;;;;;;;;;4987997;28;20023;-36
2023/07/04 12:50:21;;;;;;;8.48;1.55;;;;;;;;;;4989197;28;20033;-37
2023/07/04 12:52:47;;;;;;;10.38;1.27;;;;;;;;;;4989094;28;20026;-37
2023/07/04 12:55:33;;;;;;;9.23;1.92;;;;;;;;;;4984879;28;20037;-35
2023/07/04 12:57:59;;;;;;;2.53;1.02;;;;;;;;;;4989245;28;20057;-35
2023/07/04 13:00:28;;;;;;;4.05;1.52;;;;;;;;;;4988367;28;20057;-35
2023/07/04 13:02:55;;;;;;;4.78;1.35;;;;;;;;;;4991332;28;20041;-37
2023/07/04 13:05:20;;;;;;;3.42;1.33;;;;;;;;;;4988831;28;20074;-36
2023/07/04 13:07:47;;;;;;;4.93;1.70;;;;;;;;;;4980321;28;20034;-37
2023/07/04 13:10:24;;;;;;;7.45;1.30;;;;;;;;;;4987385;28;20261;-37
2023/07/04 13:12:50;;;;;;;4.93;1.30;;;;;;;;;;4986157;28;20045;-36
2023/07/04 13:15:35;;;;;;;8.02;2.75;;;;;;;;;;4992194;28;20460;-37
2023/07/04 13:18:04;;;;;;;5.18;1.58;;;;;;;;;;4985074;28;20424;-35
2023/07/04 13:20:31;;;;;;;4.63;1.35;;;;;;;;;;4987942;28;20029;-36
2023/07/04 13:23:15;;;;;;;6.40;1.23;;;;;;;;;;4986461;28;20030;-36
2023/07/04 13:25:41;;;;;;;5.25;1.92;;;;;;;;;;4981031;28;20121;-37
2023/07/04 13:28:19;;;;;;;4.47;1.30;;;;;;;;;;4987811;28;20551;-35
2023/07/04 13:30:44;;;;;;;5.57;1.63;;;;;;;;;;4992212;28;20022;-38
2023/07/04 13:33:32;;;;;;;5.22;1.52;;;;;;;;;;4989001;28;20025;-35
2023/07/04 13:36:06;;;;;;;5.95;1.40;;;;;;;;;;4987259;28;20022;-35
2023/07/04 13:38:32;;;;;;;6.38;2.00;;;;;;;;;;4984165;28;20053;-36
2023/07/04 13:40:57;;;;;;;17.83;2.40;;;;;;;;;;4986999;28;20030;-35
2023/07/04 13:43:24;;;;;;;4.27;1.43;;;;;;;;;;4983372;28;20366;-37
2023/07/04 13:45:49;;;;;;;9.10;1.90;;;;;;;;;;4985981;28;20274;-36
2023/07/04 13:48:15;;;;;;;6.80;2.00;;;;;;;;;;4990344;28;20026;-37
2023/07/04 13:50:40;;;;;;;4.28;2.00;;;;;;;;;;4985048;28;20324;-35
2023/07/04 13:53:07;;;;;;;6.30;1.90;;;;;;;;;;4986707;28;20102;-36
2023/07/04 13:55:33;;;;;;;7.80;1.90;;;;;;;;;;4980211;28;20325;-36
2023/07/04 13:57:58;;;;;;;5.05;2.40;;;;;;;;;;4985769;28;20039;-36
2023/07/04 14:00:23;;;;;;;6.33;2.30;;;;;;;;;;4989810;28;20081;-37
2023/07/04 14:02:49;;;;;;;6.60;2.40;;;;;;;;;;4991425;28;20276;-35
2023/07/04 14:05:14;;;;;;;3.93;1.73;;;;;;;;;;4985805;28;20619;-36
2023/07/04 14:07:39;;;;;;;5.27;2.40;;;;;;;;;;4986669;28;20351;-36
2023/07/04 14:10:05;;;;;;;5.73;1.80;;;;;;;;;;4993600;28;20280;-38
2023/07/04 14:12:30;;;;;;;6.50;1.83;;;;;;;;;;4981687;28;20860;-38
2023/07/04 14:14:55;;;;;;;6.15;3.03;;;;;;;;;;4994602;28;20053;-36
2023/07/04 14:17:20;;;;;;;5.10;2.57;;;;;;;;;;4987501;28;20033;-36
2023/07/04 14:19:46;;;;;;;6.03;2.20;;;;;;;;;;4988644;28;20034;-36
2023/07/04 14:22:12;;;;;;;16.37;2.33;;;;;;;;;;4991406;28;20268;-36
2023/07/04 14:24:38;;;;;;;4.55;1.75;;;;;;;;;;4989413;28;20293;-39
2023/07/04 14:27:03;;;;;;;4.77;2.03;;;;;;;;;;4984486;28;20362;-37
2023/07/04 14:29:29;;;;;;;5.70;1.60;;;;;;;;;;4987720;28;20076;-39
2023/07/04 14:31:55;;;;;;;5.65;1.85;;;;;;;;;;4983208;28;20018;-37
2023/07/04 14:34:20;;;;;;;4.97;1.90;;;;;;;;;;4988239;28;20481;-37
2023/07/04 14:36:46;;;;;;;9.68;1.60;;;;;;;;;;4984748;28;20050;-37
2023/07/04 14:39:11;;;;;;;4.93;1.57;;;;;;;;;;4981036;28;20026;-37